sensor_id;sensor_type;location;lat;lon;timestamp;P1;durP1;ratioP1;P2;durP2;ratioP2
5937;SDS011;2994;51.220;4.412;2023-03-23T00:02:19;4.83;;;2.57;;
5937;SDS011;2994;51.220;4.412;2023-03-23T00:04:54;3.90;;;3.33;;
5937;SDS011;2994;51.220;4.412;2023-03-23T00:07:21;3.70;;;3.40;;
5937;SDS011;2994;51.220;4.412;2023-03-23T00:09:50;4.20;;;3.10;;
5937;SDS011;2994;51.220;4.412;2023-03-23T00:12:22;3.97;;;3.23;;
5937;SDS011;2994;51.220;4.412;2023-03-23T00:14:54;4.57;;;3.50;;
5937;SDS011;2994;51.220;4.412;2023-03-23T00:17:20;4.60;;;3.80;;
5937;SDS011;2994;51.220;4.412;2023-03-23T00:19:45;3.53;;;2.87;;
5937;SDS011;2994;51.220;4.412;2023-03-23T00:22:12;4.10;;;3.70;;
5937;SDS011;2994;51.220;4.412;2023-03-23T00:24:38;4.20;;;3.80;;
5937;SDS011;2994;51.220;4.412;2023-03-23T00:27:04;4.60;;;3.93;;
5937;SDS011;2994;51.220;4.412;2023-03-23T00:29:30;4.17;;;3.77;;
5937;SDS011;2994;51.220;4.412;2023-03-23T00:31:57;4.20;;;3.80;;
5937;SDS011;2994;51.220;4.412;2023-03-23T00:34:22;5.30;;;3.43;;
5937;SDS011;2994;51.220;4.412;2023-03-23T00:36:51;5.10;;;3.50;;
5937;SDS011;2994;51.220;4.412;2023-03-23T00:39:21;4.73;;;3.27;;
5937;SDS011;2994;51.220;4.412;2023-03-23T00:41:49;4.83;;;3.80;;
5937;SDS011;2994;51.220;4.412;2023-03-23T00:44:17;4.33;;;3.93;;
5937;SDS011;2994;51.220;4.412;2023-03-23T00:46:46;4.57;;;3.60;;
5937;SDS011;2994;51.220;4.412;2023-03-23T00:49:15;3.70;;;3.40;;
5937;SDS011;2994;51.220;4.412;2023-03-23T00:51:42;4.60;;;4.17;;
5937;SDS011;2994;51.220;4.412;2023-03-23T00:54:09;4.13;;;3.80;;
5937;SDS011;2994;51.220;4.412;2023-03-23T00:56:35;4.43;;;3.87;;
5937;SDS011;2994;51.220;4.412;2023-03-23T00:59:01;3.73;;;3.43;;
5937;SDS011;2994;51.220;4.412;2023-03-23T01:01:28;4.80;;;4.13;;
5937;SDS011;2994;51.220;4.412;2023-03-23T01:03:54;5.13;;;4.63;;
5937;SDS011;2994;51.220;4.412;2023-03-23T01:06:26;4.20;;;3.80;;
5937;SDS011;2994;51.220;4.412;2023-03-23T01:09:00;4.70;;;4.10;;
5937;SDS011;2994;51.220;4.412;2023-03-23T01:11:27;4.30;;;4.00;;
5937;SDS011;2994;51.220;4.412;2023-03-23T01:13:53;4.27;;;3.67;;
5937;SDS011;2994;51.220;4.412;2023-03-23T01:16:18;4.10;;;3.80;;
5937;SDS011;2994;51.220;4.412;2023-03-23T01:18:43;3.83;;;3.40;;
5937;SDS011;2994;51.220;4.412;2023-03-23T01:21:10;5.43;;;4.70;;
5937;SDS011;2994;51.220;4.412;2023-03-23T01:23:38;6.43;;;4.20;;
5937;SDS011;2994;51.220;4.412;2023-03-23T01:26:08;3.60;;;3.30;;
5937;SDS011;2994;51.220;4.412;2023-03-23T01:28:38;3.53;;;3.23;;
5937;SDS011;2994;51.220;4.412;2023-03-23T01:31:06;5.70;;;3.60;;
5937;SDS011;2994;51.220;4.412;2023-03-23T01:33:33;4.00;;;3.60;;
5937;SDS011;2994;51.220;4.412;2023-03-23T01:36:03;3.43;;;3.13;;
5937;SDS011;2994;51.220;4.412;2023-03-23T01:38:30;3.43;;;3.13;;
5937;SDS011;2994;51.220;4.412;2023-03-23T01:40:56;5.80;;;3.67;;
5937;SDS011;2994;51.220;4.412;2023-03-23T01:43:21;4.40;;;3.57;;
5937;SDS011;2994;51.220;4.412;2023-03-23T01:45:47;6.47;;;3.33;;
5937;SDS011;2994;51.220;4.412;2023-03-23T01:48:14;5.77;;;3.30;;
5937;SDS011;2994;51.220;4.412;2023-03-23T01:50:50;3.77;;;3.20;;
5937;SDS011;2994;51.220;4.412;2023-03-23T01:53:20;3.87;;;2.40;;
5937;SDS011;2994;51.220;4.412;2023-03-23T01:55:49;4.63;;;3.13;;
5937;SDS011;2994;51.220;4.412;2023-03-23T01:58:19;3.97;;;3.50;;
5937;SDS011;2994;51.220;4.412;2023-03-23T02:00:50;5.50;;;3.17;;
5937;SDS011;2994;51.220;4.412;2023-03-23T02:03:18;2.90;;;2.60;;
5937;SDS011;2994;51.220;4.412;2023-03-23T02:05:45;3.80;;;3.50;;
5937;SDS011;2994;51.220;4.412;2023-03-23T02:08:11;3.37;;;3.07;;
5937;SDS011;2994;51.220;4.412;2023-03-23T02:10:39;3.63;;;3.30;;
5937;SDS011;2994;51.220;4.412;2023-03-23T02:13:06;3.70;;;2.97;;
5937;SDS011;2994;51.220;4.412;2023-03-23T02:15:44;3.20;;;2.90;;
5937;SDS011;2994;51.220;4.412;2023-03-23T02:18:23;5.17;;;3.23;;
5937;SDS011;2994;51.220;4.412;2023-03-23T02:21:06;4.03;;;3.03;;
5937;SDS011;2994;51.220;4.412;2023-03-23T02:26:29;3.57;;;3.17;;
5937;SDS011;2994;51.220;4.412;2023-03-23T02:29:13;3.00;;;2.60;;
5937;SDS011;2994;51.220;4.412;2023-03-23T02:32:00;2.70;;;2.50;;
5937;SDS011;2994;51.220;4.412;2023-03-23T02:34:58;2.83;;;2.53;;
5937;SDS011;2994;51.220;4.412;2023-03-23T02:37:29;4.80;;;4.40;;
5937;SDS011;2994;51.220;4.412;2023-03-23T02:40:04;3.83;;;2.63;;
5937;SDS011;2994;51.220;4.412;2023-03-23T02:42:36;4.70;;;2.60;;
5937;SDS011;2994;51.220;4.412;2023-03-23T02:45:05;5.73;;;2.43;;
5937;SDS011;2994;51.220;4.412;2023-03-23T02:47:33;4.67;;;2.60;;
5937;SDS011;2994;51.220;4.412;2023-03-23T02:50:02;2.30;;;2.10;;
5937;SDS011;2994;51.220;4.412;2023-03-23T02:52:30;2.60;;;2.20;;
5937;SDS011;2994;51.220;4.412;2023-03-23T02:54:57;2.97;;;2.13;;
5937;SDS011;2994;51.220;4.412;2023-03-23T02:57:24;3.10;;;1.90;;
5937;SDS011;2994;51.220;4.412;2023-03-23T02:59:51;4.00;;;2.20;;
5937;SDS011;2994;51.220;4.412;2023-03-23T03:02:35;3.00;;;2.30;;
5937;SDS011;2994;51.220;4.412;2023-03-23T03:12:51;5.00;;;2.50;;
5937;SDS011;2994;51.220;4.412;2023-03-23T03:20:37;2.40;;;1.77;;
5937;SDS011;2994;51.220;4.412;2023-03-23T03:23:05;5.43;;;2.30;;
5937;SDS011;2994;51.220;4.412;2023-03-23T03:25:34;4.10;;;2.10;;
5937;SDS011;2994;51.220;4.412;2023-03-23T03:28:01;3.37;;;2.07;;
5937;SDS011;2994;51.220;4.412;2023-03-23T03:30:29;6.73;;;2.03;;
5937;SDS011;2994;51.220;4.412;2023-03-23T03:32:57;3.37;;;1.97;;
5937;SDS011;2994;51.220;4.412;2023-03-23T03:35:25;6.93;;;1.90;;
5937;SDS011;2994;51.220;4.412;2023-03-23T03:37:51;3.13;;;1.87;;
5937;SDS011;2994;51.220;4.412;2023-03-23T03:40:19;3.60;;;2.00;;
5937;SDS011;2994;51.220;4.412;2023-03-23T03:42:46;3.67;;;1.90;;
5937;SDS011;2994;51.220;4.412;2023-03-23T03:45:13;1.70;;;1.60;;
5937;SDS011;2994;51.220;4.412;2023-03-23T03:47:41;4.83;;;1.93;;
5937;SDS011;2994;51.220;4.412;2023-03-23T03:50:07;3.27;;;2.27;;
5937;SDS011;2994;51.220;4.412;2023-03-23T03:52:33;2.43;;;1.53;;
5937;SDS011;2994;51.220;4.412;2023-03-23T03:55:00;3.43;;;1.63;;
5937;SDS011;2994;51.220;4.412;2023-03-23T03:57:25;4.33;;;1.97;;
5937;SDS011;2994;51.220;4.412;2023-03-23T03:59:51;4.27;;;1.60;;
5937;SDS011;2994;51.220;4.412;2023-03-23T04:02:17;3.70;;;1.93;;
5937;SDS011;2994;51.220;4.412;2023-03-23T04:04:48;2.90;;;2.20;;
5937;SDS011;2994;51.220;4.412;2023-03-23T04:07:15;3.27;;;1.57;;
5937;SDS011;2994;51.220;4.412;2023-03-23T04:09:41;2.73;;;1.97;;
5937;SDS011;2994;51.220;4.412;2023-03-23T04:12:08;2.87;;;1.37;;
5937;SDS011;2994;51.220;4.412;2023-03-23T04:14:33;2.50;;;1.73;;
5937;SDS011;2994;51.220;4.412;2023-03-23T04:16:59;4.03;;;1.93;;
5937;SDS011;2994;51.220;4.412;2023-03-23T04:19:25;6.23;;;1.80;;
5937;SDS011;2994;51.220;4.412;2023-03-23T04:21:53;3.00;;;1.70;;
5937;SDS011;2994;51.220;4.412;2023-03-23T04:24:20;2.77;;;1.93;;
5937;SDS011;2994;51.220;4.412;2023-03-23T04:26:49;3.23;;;2.03;;
5937;SDS011;2994;51.220;4.412;2023-03-23T04:29:17;2.77;;;1.60;;
5937;SDS011;2994;51.220;4.412;2023-03-23T04:31:44;2.83;;;1.40;;
5937;SDS011;2994;51.220;4.412;2023-03-23T04:34:10;4.13;;;1.70;;
5937;SDS011;2994;51.220;4.412;2023-03-23T04:36:38;1.93;;;1.60;;
5937;SDS011;2994;51.220;4.412;2023-03-23T04:39:04;3.70;;;2.20;;
5937;SDS011;2994;51.220;4.412;2023-03-23T04:41:31;7.30;;;1.80;;
5937;SDS011;2994;51.220;4.412;2023-03-23T04:43:57;4.03;;;2.20;;
5937;SDS011;2994;51.220;4.412;2023-03-23T04:46:27;5.30;;;2.13;;
5937;SDS011;2994;51.220;4.412;2023-03-23T04:48:56;5.90;;;2.67;;
5937;SDS011;2994;51.220;4.412;2023-03-23T04:51:26;4.53;;;2.03;;
5937;SDS011;2994;51.220;4.412;2023-03-23T04:53:53;2.93;;;1.53;;
5937;SDS011;2994;51.220;4.412;2023-03-23T04:56:20;3.30;;;2.27;;
5937;SDS011;2994;51.220;4.412;2023-03-23T04:58:46;2.80;;;1.77;;
5937;SDS011;2994;51.220;4.412;2023-03-23T05:01:11;4.30;;;2.00;;
5937;SDS011;2994;51.220;4.412;2023-03-23T05:03:39;4.27;;;1.60;;
5937;SDS011;2994;51.220;4.412;2023-03-23T05:06:05;4.97;;;2.20;;
5937;SDS011;2994;51.220;4.412;2023-03-23T05:08:31;2.73;;;2.00;;
5937;SDS011;2994;51.220;4.412;2023-03-23T05:10:57;6.97;;;2.47;;
5937;SDS011;2994;51.220;4.412;2023-03-23T05:13:24;3.80;;;2.40;;
5937;SDS011;2994;51.220;4.412;2023-03-23T05:15:50;3.27;;;2.03;;
5937;SDS011;2994;51.220;4.412;2023-03-23T05:18:16;3.80;;;2.10;;
5937;SDS011;2994;51.220;4.412;2023-03-23T05:20:41;3.10;;;2.13;;
5937;SDS011;2994;51.220;4.412;2023-03-23T05:23:08;2.30;;;1.90;;
5937;SDS011;2994;51.220;4.412;2023-03-23T05:25:35;4.27;;;2.20;;
5937;SDS011;2994;51.220;4.412;2023-03-23T05:28:05;5.70;;;2.00;;
5937;SDS011;2994;51.220;4.412;2023-03-23T05:30:31;8.77;;;2.07;;
5937;SDS011;2994;51.220;4.412;2023-03-23T05:32:57;8.73;;;2.60;;
5937;SDS011;2994;51.220;4.412;2023-03-23T05:35:22;4.57;;;2.00;;
5937;SDS011;2994;51.220;4.412;2023-03-23T05:37:48;4.43;;;2.00;;
5937;SDS011;2994;51.220;4.412;2023-03-23T05:40:13;5.50;;;2.40;;
5937;SDS011;2994;51.220;4.412;2023-03-23T05:42:39;6.40;;;2.63;;
5937;SDS011;2994;51.220;4.412;2023-03-23T05:45:10;7.67;;;2.13;;
5937;SDS011;2994;51.220;4.412;2023-03-23T05:47:39;4.70;;;2.07;;
5937;SDS011;2994;51.220;4.412;2023-03-23T05:50:06;2.60;;;1.63;;
5937;SDS011;2994;51.220;4.412;2023-03-23T05:52:34;7.70;;;2.40;;
5937;SDS011;2994;51.220;4.412;2023-03-23T05:55:03;2.77;;;1.77;;
5937;SDS011;2994;51.220;4.412;2023-03-23T05:57:29;3.67;;;2.63;;
5937;SDS011;2994;51.220;4.412;2023-03-23T05:59:55;3.43;;;2.13;;
5937;SDS011;2994;51.220;4.412;2023-03-23T06:02:22;3.20;;;1.97;;
5937;SDS011;2994;51.220;4.412;2023-03-23T06:04:49;2.33;;;1.97;;
5937;SDS011;2994;51.220;4.412;2023-03-23T06:07:15;4.20;;;2.40;;
5937;SDS011;2994;51.220;4.412;2023-03-23T06:09:41;4.20;;;1.80;;
5937;SDS011;2994;51.220;4.412;2023-03-23T06:12:07;4.13;;;2.17;;
5937;SDS011;2994;51.220;4.412;2023-03-23T06:14:34;2.90;;;1.97;;
5937;SDS011;2994;51.220;4.412;2023-03-23T06:17:00;4.13;;;2.13;;
5937;SDS011;2994;51.220;4.412;2023-03-23T06:19:26;3.57;;;2.03;;
5937;SDS011;2994;51.220;4.412;2023-03-23T06:21:52;4.83;;;2.47;;
5937;SDS011;2994;51.220;4.412;2023-03-23T06:24:19;4.23;;;2.27;;
5937;SDS011;2994;51.220;4.412;2023-03-23T06:26:44;5.20;;;2.30;;
5937;SDS011;2994;51.220;4.412;2023-03-23T06:29:10;5.73;;;2.57;;
5937;SDS011;2994;51.220;4.412;2023-03-23T06:31:39;7.20;;;2.87;;
5937;SDS011;2994;51.220;4.412;2023-03-23T06:34:07;5.53;;;2.87;;
5937;SDS011;2994;51.220;4.412;2023-03-23T06:36:35;5.70;;;2.60;;
5937;SDS011;2994;51.220;4.412;2023-03-23T06:39:01;3.03;;;2.47;;
5937;SDS011;2994;51.220;4.412;2023-03-23T06:41:33;2.27;;;1.30;;
5937;SDS011;2994;51.220;4.412;2023-03-23T06:43:59;1.17;;;1.00;;
5937;SDS011;2994;51.220;4.412;2023-03-23T06:46:28;2.80;;;1.20;;
5937;SDS011;2994;51.220;4.412;2023-03-23T06:48:53;2.43;;;1.03;;
5937;SDS011;2994;51.220;4.412;2023-03-23T06:51:20;1.93;;;1.10;;
5937;SDS011;2994;51.220;4.412;2023-03-23T06:53:46;4.23;;;1.77;;
5937;SDS011;2994;51.220;4.412;2023-03-23T06:56:11;5.67;;;1.33;;
5937;SDS011;2994;51.220;4.412;2023-03-23T06:58:37;3.00;;;1.40;;
5937;SDS011;2994;51.220;4.412;2023-03-23T07:01:03;1.27;;;0.90;;
5937;SDS011;2994;51.220;4.412;2023-03-23T07:03:29;2.53;;;1.33;;
5937;SDS011;2994;51.220;4.412;2023-03-23T07:05:56;1.60;;;1.30;;
5937;SDS011;2994;51.220;4.412;2023-03-23T07:08:21;2.60;;;1.27;;
5937;SDS011;2994;51.220;4.412;2023-03-23T07:10:47;3.00;;;1.40;;
5937;SDS011;2994;51.220;4.412;2023-03-23T07:13:17;2.33;;;1.20;;
5937;SDS011;2994;51.220;4.412;2023-03-23T07:15:42;2.43;;;1.20;;
5937;SDS011;2994;51.220;4.412;2023-03-23T07:18:09;2.63;;;1.07;;
5937;SDS011;2994;51.220;4.412;2023-03-23T07:20:34;2.37;;;2.13;;
5937;SDS011;2994;51.220;4.412;2023-03-23T07:23:01;1.67;;;0.93;;
5937;SDS011;2994;51.220;4.412;2023-03-23T07:25:27;2.90;;;1.77;;
5937;SDS011;2994;51.220;4.412;2023-03-23T07:27:52;2.20;;;1.40;;
5937;SDS011;2994;51.220;4.412;2023-03-23T07:30:18;1.97;;;1.10;;
5937;SDS011;2994;51.220;4.412;2023-03-23T07:32:43;2.63;;;1.80;;
5937;SDS011;2994;51.220;4.412;2023-03-23T07:35:09;3.63;;;1.40;;
5937;SDS011;2994;51.220;4.412;2023-03-23T07:37:35;2.30;;;1.70;;
5937;SDS011;2994;51.220;4.412;2023-03-23T07:40:01;6.00;;;1.37;;
5937;SDS011;2994;51.220;4.412;2023-03-23T07:42:39;7.03;;;1.57;;
5937;SDS011;2994;51.220;4.412;2023-03-23T07:45:09;4.90;;;1.50;;
5937;SDS011;2994;51.220;4.412;2023-03-23T07:47:36;3.43;;;1.20;;
5937;SDS011;2994;51.220;4.412;2023-03-23T07:50:02;1.37;;;1.00;;
5937;SDS011;2994;51.220;4.412;2023-03-23T07:52:28;2.30;;;1.10;;
5937;SDS011;2994;51.220;4.412;2023-03-23T07:54:55;1.97;;;1.53;;
5937;SDS011;2994;51.220;4.412;2023-03-23T07:57:20;3.70;;;1.70;;
5937;SDS011;2994;51.220;4.412;2023-03-23T07:59:46;1.77;;;1.10;;
5937;SDS011;2994;51.220;4.412;2023-03-23T08:02:12;2.87;;;1.17;;
5937;SDS011;2994;51.220;4.412;2023-03-23T08:04:38;2.13;;;1.50;;
5937;SDS011;2994;51.220;4.412;2023-03-23T08:07:04;5.33;;;1.70;;
5937;SDS011;2994;51.220;4.412;2023-03-23T08:09:30;3.03;;;1.10;;
5937;SDS011;2994;51.220;4.412;2023-03-23T08:11:56;4.23;;;1.40;;
5937;SDS011;2994;51.220;4.412;2023-03-23T08:14:21;1.93;;;1.23;;
5937;SDS011;2994;51.220;4.412;2023-03-23T08:16:47;3.07;;;1.37;;
5937;SDS011;2994;51.220;4.412;2023-03-23T08:19:13;1.73;;;1.10;;
5937;SDS011;2994;51.220;4.412;2023-03-23T08:21:39;1.50;;;1.03;;
5937;SDS011;2994;51.220;4.412;2023-03-23T08:24:04;3.53;;;1.37;;
5937;SDS011;2994;51.220;4.412;2023-03-23T08:26:30;2.57;;;1.17;;
5937;SDS011;2994;51.220;4.412;2023-03-23T08:28:55;2.70;;;1.37;;
5937;SDS011;2994;51.220;4.412;2023-03-23T08:31:22;4.10;;;2.43;;
5937;SDS011;2994;51.220;4.412;2023-03-23T08:33:48;3.13;;;2.20;;
5937;SDS011;2994;51.220;4.412;2023-03-23T08:36:13;3.20;;;1.77;;
5937;SDS011;2994;51.220;4.412;2023-03-23T08:38:39;6.77;;;2.00;;
5937;SDS011;2994;51.220;4.412;2023-03-23T08:41:05;4.03;;;1.83;;
5937;SDS011;2994;51.220;4.412;2023-03-23T08:43:31;1.73;;;1.53;;
5937;SDS011;2994;51.220;4.412;2023-03-23T08:45:58;5.07;;;1.43;;
5937;SDS011;2994;51.220;4.412;2023-03-23T08:48:24;4.53;;;1.50;;
5937;SDS011;2994;51.220;4.412;2023-03-23T08:50:50;6.33;;;2.00;;
5937;SDS011;2994;51.220;4.412;2023-03-23T08:53:17;5.63;;;2.10;;
5937;SDS011;2994;51.220;4.412;2023-03-23T08:55:43;2.50;;;1.67;;
5937;SDS011;2994;51.220;4.412;2023-03-23T08:58:09;2.43;;;1.70;;
5937;SDS011;2994;51.220;4.412;2023-03-23T09:00:34;4.57;;;2.00;;
5937;SDS011;2994;51.220;4.412;2023-03-23T09:03:00;2.23;;;1.47;;
5937;SDS011;2994;51.220;4.412;2023-03-23T09:05:26;2.63;;;1.33;;
5937;SDS011;2994;51.220;4.412;2023-03-23T09:07:53;3.83;;;1.60;;
5937;SDS011;2994;51.220;4.412;2023-03-23T09:10:21;4.97;;;1.97;;
5937;SDS011;2994;51.220;4.412;2023-03-23T09:12:49;2.07;;;1.43;;
5937;SDS011;2994;51.220;4.412;2023-03-23T09:15:17;2.50;;;1.50;;
5937;SDS011;2994;51.220;4.412;2023-03-23T09:17:44;3.40;;;2.10;;
5937;SDS011;2994;51.220;4.412;2023-03-23T09:20:12;19.77;;;2.57;;
5937;SDS011;2994;51.220;4.412;2023-03-23T09:22:39;6.50;;;2.30;;
5937;SDS011;2994;51.220;4.412;2023-03-23T09:25:06;4.37;;;1.70;;
5937;SDS011;2994;51.220;4.412;2023-03-23T09:27:33;8.33;;;3.23;;
5937;SDS011;2994;51.220;4.412;2023-03-23T09:30:02;5.80;;;2.40;;
5937;SDS011;2994;51.220;4.412;2023-03-23T09:32:31;3.70;;;2.00;;
5937;SDS011;2994;51.220;4.412;2023-03-23T09:35:00;3.97;;;1.53;;
5937;SDS011;2994;51.220;4.412;2023-03-23T09:37:26;5.40;;;2.17;;
5937;SDS011;2994;51.220;4.412;2023-03-23T09:39:52;7.47;;;3.40;;
5937;SDS011;2994;51.220;4.412;2023-03-23T09:42:44;5.50;;;1.97;;
5937;SDS011;2994;51.220;4.412;2023-03-23T09:45:35;4.00;;;1.83;;
5937;SDS011;2994;51.220;4.412;2023-03-23T09:53:45;2.80;;;1.73;;
5937;SDS011;2994;51.220;4.412;2023-03-23T09:56:18;4.63;;;1.90;;
5937;SDS011;2994;51.220;4.412;2023-03-23T09:58:47;6.60;;;2.53;;
5937;SDS011;2994;51.220;4.412;2023-03-23T10:01:37;2.50;;;2.00;;
5937;SDS011;2994;51.220;4.412;2023-03-23T10:04:54;4.10;;;1.70;;
5937;SDS011;2994;51.220;4.412;2023-03-23T10:07:20;4.50;;;1.67;;
5937;SDS011;2994;51.220;4.412;2023-03-23T10:09:57;3.73;;;1.80;;
5937;SDS011;2994;51.220;4.412;2023-03-23T10:15:12;2.97;;;1.33;;
5937;SDS011;2994;51.220;4.412;2023-03-23T10:20:50;5.57;;;1.80;;
5937;SDS011;2994;51.220;4.412;2023-03-23T10:28:47;3.40;;;1.60;;
5937;SDS011;2994;51.220;4.412;2023-03-23T10:31:23;3.33;;;1.90;;
5937;SDS011;2994;51.220;4.412;2023-03-23T10:33:54;3.07;;;1.87;;
5937;SDS011;2994;51.220;4.412;2023-03-23T10:39:06;5.10;;;2.20;;
5937;SDS011;2994;51.220;4.412;2023-03-23T10:41:38;4.03;;;3.27;;
5937;SDS011;2994;51.220;4.412;2023-03-23T10:44:11;4.23;;;2.80;;
5937;SDS011;2994;51.220;4.412;2023-03-23T10:49:26;8.03;;;2.87;;
5937;SDS011;2994;51.220;4.412;2023-03-23T10:52:23;3.70;;;3.00;;
5937;SDS011;2994;51.220;4.412;2023-03-23T10:55:03;6.03;;;3.23;;
5937;SDS011;2994;51.220;4.412;2023-03-23T10:57:33;3.57;;;2.47;;
5937;SDS011;2994;51.220;4.412;2023-03-23T11:00:00;5.03;;;2.10;;
5937;SDS011;2994;51.220;4.412;2023-03-23T11:02:31;4.03;;;3.20;;
5937;SDS011;2994;51.220;4.412;2023-03-23T11:05:40;5.50;;;2.77;;
5937;SDS011;2994;51.220;4.412;2023-03-23T11:08:22;3.63;;;2.43;;
5937;SDS011;2994;51.220;4.412;2023-03-23T11:10:54;5.20;;;2.80;;
5937;SDS011;2994;51.220;4.412;2023-03-23T11:13:22;6.43;;;3.13;;
5937;SDS011;2994;51.220;4.412;2023-03-23T11:15:53;4.33;;;2.70;;
5937;SDS011;2994;51.220;4.412;2023-03-23T11:18:23;5.80;;;3.20;;
5937;SDS011;2994;51.220;4.412;2023-03-23T11:21:01;7.10;;;2.80;;
5937;SDS011;2994;51.220;4.412;2023-03-23T11:23:29;3.23;;;2.93;;
5937;SDS011;2994;51.220;4.412;2023-03-23T11:26:01;2.87;;;2.57;;
5937;SDS011;2994;51.220;4.412;2023-03-23T11:28:31;4.93;;;3.07;;
5937;SDS011;2994;51.220;4.412;2023-03-23T11:31:00;4.07;;;3.13;;
5937;SDS011;2994;51.220;4.412;2023-03-23T11:33:35;4.03;;;2.80;;
5937;SDS011;2994;51.220;4.412;2023-03-23T11:36:12;5.30;;;3.70;;
5937;SDS011;2994;51.220;4.412;2023-03-23T11:38:39;6.33;;;2.80;;
5937;SDS011;2994;51.220;4.412;2023-03-23T11:41:08;4.30;;;2.67;;
5937;SDS011;2994;51.220;4.412;2023-03-23T11:43:38;5.77;;;2.97;;
5937;SDS011;2994;51.220;4.412;2023-03-23T11:46:09;6.57;;;2.40;;
5937;SDS011;2994;51.220;4.412;2023-03-23T11:48:45;3.60;;;2.40;;
5937;SDS011;2994;51.220;4.412;2023-03-23T11:51:24;6.27;;;2.90;;
5937;SDS011;2994;51.220;4.412;2023-03-23T11:54:12;4.40;;;2.93;;
5937;SDS011;2994;51.220;4.412;2023-03-23T11:56:42;4.70;;;3.23;;
5937;SDS011;2994;51.220;4.412;2023-03-23T11:59:11;6.00;;;2.87;;
5937;SDS011;2994;51.220;4.412;2023-03-23T12:01:55;4.43;;;3.20;;
5937;SDS011;2994;51.220;4.412;2023-03-23T12:07:37;4.67;;;2.73;;
5937;SDS011;2994;51.220;4.412;2023-03-23T12:10:19;5.17;;;3.20;;
5937;SDS011;2994;51.220;4.412;2023-03-23T12:15:51;5.17;;;2.57;;
5937;SDS011;2994;51.220;4.412;2023-03-23T12:26:25;6.40;;;3.00;;
5937;SDS011;2994;51.220;4.412;2023-03-23T12:42:14;5.17;;;3.00;;
5937;SDS011;2994;51.220;4.412;2023-03-23T12:49:56;5.97;;;3.37;;
5937;SDS011;2994;51.220;4.412;2023-03-23T12:58:21;4.70;;;3.33;;
5937;SDS011;2994;51.220;4.412;2023-03-23T13:01:03;6.83;;;4.43;;
5937;SDS011;2994;51.220;4.412;2023-03-23T13:03:39;9.10;;;4.03;;
5937;SDS011;2994;51.220;4.412;2023-03-23T13:06:27;5.90;;;2.80;;
5937;SDS011;2994;51.220;4.412;2023-03-23T13:11:40;6.43;;;3.83;;
5937;SDS011;2994;51.220;4.412;2023-03-23T13:14:43;5.73;;;3.20;;
5937;SDS011;2994;51.220;4.412;2023-03-23T13:17:17;9.77;;;4.30;;
5937;SDS011;2994;51.220;4.412;2023-03-23T13:28:47;6.47;;;3.57;;
5937;SDS011;2994;51.220;4.412;2023-03-23T13:31:26;6.90;;;3.60;;
5937;SDS011;2994;51.220;4.412;2023-03-23T13:33:58;3.10;;;2.13;;
5937;SDS011;2994;51.220;4.412;2023-03-23T13:36:30;7.10;;;2.90;;
5937;SDS011;2994;51.220;4.412;2023-03-23T13:39:02;3.83;;;2.50;;
5937;SDS011;2994;51.220;4.412;2023-03-23T13:41:32;7.90;;;2.47;;
5937;SDS011;2994;51.220;4.412;2023-03-23T13:44:39;5.27;;;2.20;;
5937;SDS011;2994;51.220;4.412;2023-03-23T13:47:05;10.10;;;3.33;;
5937;SDS011;2994;51.220;4.412;2023-03-23T13:49:33;7.73;;;2.93;;
5937;SDS011;2994;51.220;4.412;2023-03-23T13:54:51;7.03;;;2.53;;
5937;SDS011;2994;51.220;4.412;2023-03-23T13:57:38;7.57;;;2.67;;
5937;SDS011;2994;51.220;4.412;2023-03-23T14:10:54;6.17;;;3.80;;
5937;SDS011;2994;51.220;4.412;2023-03-23T14:18:27;6.67;;;3.03;;
5937;SDS011;2994;51.220;4.412;2023-03-23T14:20:56;6.83;;;3.10;;
5937;SDS011;2994;51.220;4.412;2023-03-23T14:23:22;3.87;;;2.50;;
5937;SDS011;2994;51.220;4.412;2023-03-23T14:25:55;4.30;;;2.90;;
5937;SDS011;2994;51.220;4.412;2023-03-23T14:28:31;4.20;;;2.87;;
5937;SDS011;2994;51.220;4.412;2023-03-23T14:31:00;3.77;;;2.13;;
5937;SDS011;2994;51.220;4.412;2023-03-23T14:33:26;3.40;;;2.00;;
5937;SDS011;2994;51.220;4.412;2023-03-23T14:35:53;7.33;;;3.10;;
5937;SDS011;2994;51.220;4.412;2023-03-23T14:38:20;8.27;;;2.40;;
5937;SDS011;2994;51.220;4.412;2023-03-23T14:40:59;3.23;;;2.50;;
5937;SDS011;2994;51.220;4.412;2023-03-23T14:43:26;5.63;;;2.80;;
5937;SDS011;2994;51.220;4.412;2023-03-23T14:46:00;7.43;;;2.30;;
5937;SDS011;2994;51.220;4.412;2023-03-23T14:48:26;5.60;;;2.13;;
5937;SDS011;2994;51.220;4.412;2023-03-23T14:50:57;5.10;;;2.90;;
5937;SDS011;2994;51.220;4.412;2023-03-23T14:53:39;4.30;;;2.70;;
5937;SDS011;2994;51.220;4.412;2023-03-23T14:56:12;5.27;;;3.93;;
5937;SDS011;2994;51.220;4.412;2023-03-23T14:58:43;8.77;;;3.80;;
5937;SDS011;2994;51.220;4.412;2023-03-23T15:01:10;7.47;;;5.60;;
5937;SDS011;2994;51.220;4.412;2023-03-23T15:03:39;8.30;;;2.87;;
5937;SDS011;2994;51.220;4.412;2023-03-23T15:06:12;4.50;;;2.30;;
5937;SDS011;2994;51.220;4.412;2023-03-23T15:08:41;3.40;;;2.77;;
5937;SDS011;2994;51.220;4.412;2023-03-23T15:11:21;6.87;;;2.90;;
5937;SDS011;2994;51.220;4.412;2023-03-23T15:13:57;5.50;;;2.93;;
5937;SDS011;2994;51.220;4.412;2023-03-23T15:16:31;4.30;;;2.97;;
5937;SDS011;2994;51.220;4.412;2023-03-23T15:21:35;6.40;;;3.17;;
5937;SDS011;2994;51.220;4.412;2023-03-23T15:24:23;4.77;;;2.93;;
5937;SDS011;2994;51.220;4.412;2023-03-23T15:26:52;5.00;;;2.80;;
5937;SDS011;2994;51.220;4.412;2023-03-23T15:29:19;4.53;;;3.00;;
5937;SDS011;2994;51.220;4.412;2023-03-23T15:31:52;4.80;;;2.60;;
5937;SDS011;2994;51.220;4.412;2023-03-23T15:34:30;4.63;;;2.90;;
5937;SDS011;2994;51.220;4.412;2023-03-23T15:37:00;4.03;;;3.13;;
5937;SDS011;2994;51.220;4.412;2023-03-23T15:39:27;6.20;;;3.07;;
5937;SDS011;2994;51.220;4.412;2023-03-23T15:41:54;6.33;;;3.17;;
5937;SDS011;2994;51.220;4.412;2023-03-23T15:44:24;6.20;;;2.37;;
5937;SDS011;2994;51.220;4.412;2023-03-23T15:47:01;5.33;;;3.90;;
5937;SDS011;2994;51.220;4.412;2023-03-23T15:49:29;7.50;;;3.10;;
5937;SDS011;2994;51.220;4.412;2023-03-23T15:51:54;5.17;;;3.07;;
5937;SDS011;2994;51.220;4.412;2023-03-23T15:54:20;7.00;;;2.90;;
5937;SDS011;2994;51.220;4.412;2023-03-23T15:56:46;6.27;;;2.77;;
5937;SDS011;2994;51.220;4.412;2023-03-23T15:59:11;6.30;;;4.00;;
5937;SDS011;2994;51.220;4.412;2023-03-23T16:01:38;6.73;;;3.80;;
5937;SDS011;2994;51.220;4.412;2023-03-23T16:04:10;5.33;;;4.03;;
5937;SDS011;2994;51.220;4.412;2023-03-23T16:06:39;7.40;;;4.87;;
5937;SDS011;2994;51.220;4.412;2023-03-23T16:09:06;4.80;;;2.63;;
5937;SDS011;2994;51.220;4.412;2023-03-23T16:11:33;12.53;;;3.23;;
5937;SDS011;2994;51.220;4.412;2023-03-23T16:13:59;7.80;;;4.90;;
5937;SDS011;2994;51.220;4.412;2023-03-23T16:16:31;6.00;;;3.70;;
5937;SDS011;2994;51.220;4.412;2023-03-23T16:19:00;8.73;;;3.10;;
5937;SDS011;2994;51.220;4.412;2023-03-23T16:21:26;5.37;;;2.70;;
5937;SDS011;2994;51.220;4.412;2023-03-23T16:23:51;6.13;;;2.90;;
5937;SDS011;2994;51.220;4.412;2023-03-23T16:26:18;8.90;;;3.30;;
5937;SDS011;2994;51.220;4.412;2023-03-23T16:28:43;5.83;;;2.97;;
5937;SDS011;2994;51.220;4.412;2023-03-23T16:31:09;6.10;;;3.70;;
5937;SDS011;2994;51.220;4.412;2023-03-23T16:33:35;4.20;;;3.20;;
5937;SDS011;2994;51.220;4.412;2023-03-23T16:36:01;4.83;;;3.20;;
5937;SDS011;2994;51.220;4.412;2023-03-23T16:38:27;8.00;;;3.40;;
5937;SDS011;2994;51.220;4.412;2023-03-23T16:40:52;7.30;;;4.03;;
5937;SDS011;2994;51.220;4.412;2023-03-23T16:43:18;5.87;;;3.13;;
5937;SDS011;2994;51.220;4.412;2023-03-23T16:45:43;5.80;;;3.40;;
5937;SDS011;2994;51.220;4.412;2023-03-23T16:48:10;10.37;;;3.17;;
5937;SDS011;2994;51.220;4.412;2023-03-23T16:50:38;4.10;;;2.70;;
5937;SDS011;2994;51.220;4.412;2023-03-23T16:53:05;8.53;;;3.50;;
5937;SDS011;2994;51.220;4.412;2023-03-23T16:55:32;7.97;;;3.60;;
5937;SDS011;2994;51.220;4.412;2023-03-23T16:57:58;7.03;;;3.23;;
5937;SDS011;2994;51.220;4.412;2023-03-23T17:00:23;6.60;;;3.97;;
5937;SDS011;2994;51.220;4.412;2023-03-23T17:02:51;6.33;;;3.50;;
5937;SDS011;2994;51.220;4.412;2023-03-23T17:05:20;6.83;;;4.40;;
5937;SDS011;2994;51.220;4.412;2023-03-23T17:07:47;5.40;;;3.20;;
5937;SDS011;2994;51.220;4.412;2023-03-23T17:10:13;6.10;;;2.90;;
5937;SDS011;2994;51.220;4.412;2023-03-23T17:12:39;4.63;;;3.43;;
5937;SDS011;2994;51.220;4.412;2023-03-23T17:15:06;4.37;;;3.30;;
5937;SDS011;2994;51.220;4.412;2023-03-23T17:17:33;9.40;;;4.00;;
5937;SDS011;2994;51.220;4.412;2023-03-23T17:19:59;4.17;;;2.77;;